Terminal Aerodrome Forecast
Issued by NWS

Home | Current Version | Previous Version | Text Only | Print | Product List | Glossary On
Versions: 1 2 3 4 5 6 7 8 9 10 11 12
099
FTUS45 KTFX 241720
TAFBZN
TAF
KBZN 241720Z 2418/2524 23009KT P6SM BKN070
     FM242300 23011KT P6SM VCSH BKN040 PROB30 2503/2506 4SM -SN
      OVC025
     FM251500 22008KT P6SM BKN060
     FM251800 23013G26KT P6SM VCSH BKN070=

USA.gov is the U.S. government's official web portal to all federal, state and local government web resources and services.